sensor_id;sensor_type;location;lat;lon;timestamp;P1;durP1;ratioP1;P2;durP2;ratioP2
29662;SDS011;16578;53.266;7.920;2023-06-10T00:01:47;7.15;;;4.38;;
29662;SDS011;16578;53.266;7.920;2023-06-10T00:04:16;6.82;;;4.15;;
29662;SDS011;16578;53.266;7.920;2023-06-10T00:06:43;8.98;;;4.70;;
29662;SDS011;16578;53.266;7.920;2023-06-10T00:09:09;5.47;;;3.67;;
29662;SDS011;16578;53.266;7.920;2023-06-10T00:11:35;7.75;;;4.60;;
29662;SDS011;16578;53.266;7.920;2023-06-10T00:14:04;7.63;;;3.90;;
29662;SDS011;16578;53.266;7.920;2023-06-10T00:16:30;7.38;;;4.43;;
29662;SDS011;16578;53.266;7.920;2023-06-10T00:18:55;7.07;;;4.18;;
29662;SDS011;16578;53.266;7.920;2023-06-10T00:21:25;6.90;;;4.40;;
29662;SDS011;16578;53.266;7.920;2023-06-10T00:23:51;6.63;;;4.05;;
29662;SDS011;16578;53.266;7.920;2023-06-10T00:26:16;7.13;;;4.03;;
29662;SDS011;16578;53.266;7.920;2023-06-10T00:28:42;8.05;;;4.15;;
29662;SDS011;16578;53.266;7.920;2023-06-10T00:31:10;6.07;;;3.95;;
29662;SDS011;16578;53.266;7.920;2023-06-10T00:33:35;8.23;;;4.22;;
29662;SDS011;16578;53.266;7.920;2023-06-10T00:36:01;6.70;;;4.32;;
29662;SDS011;16578;53.266;7.920;2023-06-10T00:38:26;6.20;;;4.43;;
29662;SDS011;16578;53.266;7.920;2023-06-10T00:40:52;6.55;;;4.32;;
29662;SDS011;16578;53.266;7.920;2023-06-10T00:43:17;5.43;;;4.07;;
29662;SDS011;16578;53.266;7.920;2023-06-10T00:45:43;5.65;;;3.80;;
29662;SDS011;16578;53.266;7.920;2023-06-10T00:48:08;7.40;;;4.30;;
29662;SDS011;16578;53.266;7.920;2023-06-10T00:50:35;6.97;;;3.85;;
29662;SDS011;16578;53.266;7.920;2023-06-10T00:53:04;8.52;;;4.32;;
29662;SDS011;16578;53.266;7.920;2023-06-10T00:55:30;8.15;;;4.43;;
29662;SDS011;16578;53.266;7.920;2023-06-10T00:57:57;13.15;;;4.65;;
29662;SDS011;16578;53.266;7.920;2023-06-10T01:00:23;6.32;;;4.55;;
29662;SDS011;16578;53.266;7.920;2023-06-10T01:02:49;6.22;;;4.13;;
29662;SDS011;16578;53.266;7.920;2023-06-10T01:05:17;11.32;;;4.50;;
29662;SDS011;16578;53.266;7.920;2023-06-10T01:07:50;7.32;;;4.00;;
29662;SDS011;16578;53.266;7.920;2023-06-10T01:10:32;6.88;;;4.20;;
29662;SDS011;16578;53.266;7.920;2023-06-10T01:13:20;7.03;;;4.07;;
29662;SDS011;16578;53.266;7.920;2023-06-10T01:18:15;9.05;;;4.15;;
29662;SDS011;16578;53.266;7.920;2023-06-10T01:20:41;6.90;;;4.70;;
29662;SDS011;16578;53.266;7.920;2023-06-10T01:23:08;9.20;;;5.13;;
29662;SDS011;16578;53.266;7.920;2023-06-10T01:25:39;6.95;;;4.28;;
29662;SDS011;16578;53.266;7.920;2023-06-10T01:28:13;8.10;;;4.82;;
29662;SDS011;16578;53.266;7.920;2023-06-10T01:33:35;6.90;;;4.50;;
29662;SDS011;16578;53.266;7.920;2023-06-10T01:36:04;10.85;;;4.38;;
29662;SDS011;16578;53.266;7.920;2023-06-10T01:38:32;8.23;;;4.15;;
29662;SDS011;16578;53.266;7.920;2023-06-10T01:41:01;7.50;;;4.35;;
29662;SDS011;16578;53.266;7.920;2023-06-10T01:43:31;7.80;;;4.43;;
29662;SDS011;16578;53.266;7.920;2023-06-10T01:45:58;10.00;;;5.18;;
29662;SDS011;16578;53.266;7.920;2023-06-10T01:48:23;9.82;;;5.13;;
29662;SDS011;16578;53.266;7.920;2023-06-10T01:50:49;7.63;;;4.80;;
29662;SDS011;16578;53.266;7.920;2023-06-10T01:53:14;9.60;;;4.93;;
29662;SDS011;16578;53.266;7.920;2023-06-10T01:55:40;9.23;;;4.88;;
29662;SDS011;16578;53.266;7.920;2023-06-10T01:58:06;7.32;;;4.65;;
29662;SDS011;16578;53.266;7.920;2023-06-10T02:00:31;7.88;;;4.60;;
29662;SDS011;16578;53.266;7.920;2023-06-10T02:02:57;9.20;;;4.97;;
29662;SDS011;16578;53.266;7.920;2023-06-10T02:05:22;7.88;;;4.60;;
29662;SDS011;16578;53.266;7.920;2023-06-10T02:07:48;9.27;;;4.88;;
29662;SDS011;16578;53.266;7.920;2023-06-10T02:10:13;9.63;;;5.47;;
29662;SDS011;16578;53.266;7.920;2023-06-10T02:12:39;11.25;;;5.65;;
29662;SDS011;16578;53.266;7.920;2023-06-10T02:15:04;8.52;;;5.28;;
29662;SDS011;16578;53.266;7.920;2023-06-10T02:17:30;10.80;;;5.43;;
29662;SDS011;16578;53.266;7.920;2023-06-10T02:19:57;10.38;;;5.50;;
29662;SDS011;16578;53.266;7.920;2023-06-10T02:22:24;11.25;;;5.65;;
29662;SDS011;16578;53.266;7.920;2023-06-10T02:24:50;13.13;;;5.60;;
29662;SDS011;16578;53.266;7.920;2023-06-10T02:27:16;13.57;;;5.40;;
29662;SDS011;16578;53.266;7.920;2023-06-10T02:29:43;8.82;;;5.30;;
29662;SDS011;16578;53.266;7.920;2023-06-10T02:32:08;11.45;;;5.80;;
29662;SDS011;16578;53.266;7.920;2023-06-10T02:34:34;10.32;;;5.38;;
29662;SDS011;16578;53.266;7.920;2023-06-10T02:37:01;12.85;;;5.72;;
29662;SDS011;16578;53.266;7.920;2023-06-10T02:39:27;12.57;;;6.53;;
29662;SDS011;16578;53.266;7.920;2023-06-10T02:41:53;8.63;;;5.85;;
29662;SDS011;16578;53.266;7.920;2023-06-10T02:44:18;10.10;;;6.00;;
29662;SDS011;16578;53.266;7.920;2023-06-10T02:46:45;9.25;;;5.70;;
29662;SDS011;16578;53.266;7.920;2023-06-10T02:49:11;9.45;;;5.75;;
29662;SDS011;16578;53.266;7.920;2023-06-10T02:51:37;13.10;;;6.53;;
29662;SDS011;16578;53.266;7.920;2023-06-10T02:54:03;13.98;;;5.90;;
29662;SDS011;16578;53.266;7.920;2023-06-10T02:56:29;11.88;;;6.10;;
29662;SDS011;16578;53.266;7.920;2023-06-10T02:58:55;11.20;;;5.35;;
29662;SDS011;16578;53.266;7.920;2023-06-10T03:01:20;9.40;;;5.70;;
29662;SDS011;16578;53.266;7.920;2023-06-10T03:03:46;11.35;;;6.10;;
29662;SDS011;16578;53.266;7.920;2023-06-10T03:06:12;10.02;;;5.93;;
29662;SDS011;16578;53.266;7.920;2023-06-10T03:08:39;8.77;;;6.10;;
29662;SDS011;16578;53.266;7.920;2023-06-10T03:11:05;13.50;;;6.43;;
29662;SDS011;16578;53.266;7.920;2023-06-10T03:13:31;12.40;;;5.72;;
29662;SDS011;16578;53.266;7.920;2023-06-10T03:15:57;12.52;;;6.57;;
29662;SDS011;16578;53.266;7.920;2023-06-10T03:18:25;11.52;;;6.28;;
29662;SDS011;16578;53.266;7.920;2023-06-10T03:20:53;9.55;;;5.38;;
29662;SDS011;16578;53.266;7.920;2023-06-10T03:23:20;9.25;;;6.00;;
29662;SDS011;16578;53.266;7.920;2023-06-10T03:25:45;9.32;;;6.38;;
29662;SDS011;16578;53.266;7.920;2023-06-10T03:28:11;13.20;;;7.03;;
29662;SDS011;16578;53.266;7.920;2023-06-10T03:30:37;9.05;;;6.25;;
29662;SDS011;16578;53.266;7.920;2023-06-10T03:33:02;10.88;;;6.68;;
29662;SDS011;16578;53.266;7.920;2023-06-10T03:35:28;11.85;;;6.57;;
29662;SDS011;16578;53.266;7.920;2023-06-10T03:37:54;9.35;;;6.20;;
29662;SDS011;16578;53.266;7.920;2023-06-10T03:40:20;12.25;;;6.57;;
29662;SDS011;16578;53.266;7.920;2023-06-10T03:42:45;10.85;;;6.38;;
29662;SDS011;16578;53.266;7.920;2023-06-10T03:45:11;9.38;;;6.82;;
29662;SDS011;16578;53.266;7.920;2023-06-10T03:47:37;8.93;;;6.25;;
29662;SDS011;16578;53.266;7.920;2023-06-10T03:50:03;9.65;;;6.10;;
29662;SDS011;16578;53.266;7.920;2023-06-10T03:52:29;11.80;;;6.38;;
29662;SDS011;16578;53.266;7.920;2023-06-10T03:54:55;9.18;;;6.18;;
29662;SDS011;16578;53.266;7.920;2023-06-10T03:57:21;12.43;;;6.70;;
29662;SDS011;16578;53.266;7.920;2023-06-10T03:59:46;10.43;;;6.78;;
29662;SDS011;16578;53.266;7.920;2023-06-10T04:02:12;10.18;;;6.18;;
29662;SDS011;16578;53.266;7.920;2023-06-10T04:04:37;10.43;;;6.88;;
29662;SDS011;16578;53.266;7.920;2023-06-10T04:07:03;10.57;;;7.00;;
29662;SDS011;16578;53.266;7.920;2023-06-10T04:09:31;9.20;;;6.72;;
29662;SDS011;16578;53.266;7.920;2023-06-10T04:11:57;9.30;;;6.80;;
29662;SDS011;16578;53.266;7.920;2023-06-10T04:14:22;10.65;;;6.57;;
29662;SDS011;16578;53.266;7.920;2023-06-10T04:16:48;10.20;;;6.32;;
29662;SDS011;16578;53.266;7.920;2023-06-10T04:19:15;9.73;;;6.80;;
29662;SDS011;16578;53.266;7.920;2023-06-10T04:21:41;9.75;;;6.68;;
29662;SDS011;16578;53.266;7.920;2023-06-10T04:24:07;11.68;;;6.85;;
29662;SDS011;16578;53.266;7.920;2023-06-10T04:26:34;12.93;;;7.32;;
29662;SDS011;16578;53.266;7.920;2023-06-10T04:29:00;13.52;;;6.72;;
29662;SDS011;16578;53.266;7.920;2023-06-10T04:31:26;10.65;;;6.63;;
29662;SDS011;16578;53.266;7.920;2023-06-10T04:33:51;11.65;;;6.60;;
29662;SDS011;16578;53.266;7.920;2023-06-10T04:36:17;7.72;;;5.97;;
29662;SDS011;16578;53.266;7.920;2023-06-10T04:38:42;11.82;;;6.85;;
29662;SDS011;16578;53.266;7.920;2023-06-10T04:41:08;10.65;;;6.20;;
29662;SDS011;16578;53.266;7.920;2023-06-10T04:43:34;11.10;;;7.05;;
29662;SDS011;16578;53.266;7.920;2023-06-10T04:45:59;11.52;;;7.05;;
29662;SDS011;16578;53.266;7.920;2023-06-10T04:48:25;11.98;;;6.82;;
29662;SDS011;16578;53.266;7.920;2023-06-10T04:50:51;8.60;;;6.07;;
29662;SDS011;16578;53.266;7.920;2023-06-10T04:53:16;8.80;;;6.00;;
29662;SDS011;16578;53.266;7.920;2023-06-10T04:55:42;12.25;;;7.07;;
29662;SDS011;16578;53.266;7.920;2023-06-10T04:58:08;14.18;;;6.55;;
29662;SDS011;16578;53.266;7.920;2023-06-10T05:00:34;9.65;;;5.50;;
29662;SDS011;16578;53.266;7.920;2023-06-10T05:03:00;10.50;;;5.78;;
29662;SDS011;16578;53.266;7.920;2023-06-10T05:05:25;7.88;;;5.53;;
29662;SDS011;16578;53.266;7.920;2023-06-10T05:07:51;9.55;;;5.20;;
29662;SDS011;16578;53.266;7.920;2023-06-10T05:10:16;11.77;;;6.00;;
29662;SDS011;16578;53.266;7.920;2023-06-10T05:12:42;10.13;;;5.80;;
29662;SDS011;16578;53.266;7.920;2023-06-10T05:15:07;13.02;;;5.63;;
29662;SDS011;16578;53.266;7.920;2023-06-10T05:17:33;8.10;;;5.30;;
29662;SDS011;16578;53.266;7.920;2023-06-10T05:20:02;8.82;;;5.13;;
29662;SDS011;16578;53.266;7.920;2023-06-10T05:22:29;11.93;;;6.15;;
29662;SDS011;16578;53.266;7.920;2023-06-10T05:24:55;8.02;;;5.18;;
29662;SDS011;16578;53.266;7.920;2023-06-10T05:27:20;11.93;;;5.43;;
29662;SDS011;16578;53.266;7.920;2023-06-10T05:29:47;8.30;;;5.20;;
29662;SDS011;16578;53.266;7.920;2023-06-10T05:32:12;9.95;;;5.30;;
29662;SDS011;16578;53.266;7.920;2023-06-10T05:34:38;9.18;;;5.20;;
29662;SDS011;16578;53.266;7.920;2023-06-10T05:37:03;7.43;;;5.10;;
29662;SDS011;16578;53.266;7.920;2023-06-10T05:39:29;10.70;;;5.32;;
29662;SDS011;16578;53.266;7.920;2023-06-10T05:41:55;10.50;;;5.22;;
29662;SDS011;16578;53.266;7.920;2023-06-10T05:44:21;8.43;;;5.07;;
29662;SDS011;16578;53.266;7.920;2023-06-10T05:46:47;10.75;;;5.68;;
29662;SDS011;16578;53.266;7.920;2023-06-10T05:49:12;8.77;;;5.03;;
29662;SDS011;16578;53.266;7.920;2023-06-10T05:51:38;8.13;;;5.20;;
29662;SDS011;16578;53.266;7.920;2023-06-10T05:54:03;8.35;;;4.70;;
29662;SDS011;16578;53.266;7.920;2023-06-10T05:56:29;7.97;;;4.63;;
29662;SDS011;16578;53.266;7.920;2023-06-10T05:58:55;11.13;;;4.93;;
29662;SDS011;16578;53.266;7.920;2023-06-10T06:01:21;7.68;;;4.30;;
29662;SDS011;16578;53.266;7.920;2023-06-10T06:03:46;12.80;;;5.57;;
29662;SDS011;16578;53.266;7.920;2023-06-10T06:06:12;8.07;;;4.78;;
29662;SDS011;16578;53.266;7.920;2023-06-10T06:08:37;8.52;;;4.35;;
29662;SDS011;16578;53.266;7.920;2023-06-10T06:11:03;9.50;;;5.05;;
29662;SDS011;16578;53.266;7.920;2023-06-10T06:13:28;8.13;;;4.18;;
29662;SDS011;16578;53.266;7.920;2023-06-10T06:15:54;10.90;;;3.95;;
29662;SDS011;16578;53.266;7.920;2023-06-10T06:18:20;8.68;;;4.35;;
29662;SDS011;16578;53.266;7.920;2023-06-10T06:20:45;10.23;;;4.53;;
29662;SDS011;16578;53.266;7.920;2023-06-10T06:23:11;7.97;;;4.35;;
29662;SDS011;16578;53.266;7.920;2023-06-10T06:25:36;7.32;;;4.20;;
29662;SDS011;16578;53.266;7.920;2023-06-10T06:28:05;10.80;;;4.47;;
29662;SDS011;16578;53.266;7.920;2023-06-10T06:30:31;7.28;;;4.05;;
29662;SDS011;16578;53.266;7.920;2023-06-10T06:32:57;9.50;;;4.30;;
29662;SDS011;16578;53.266;7.920;2023-06-10T06:35:22;7.45;;;3.88;;
29662;SDS011;16578;53.266;7.920;2023-06-10T06:37:48;5.85;;;4.00;;
29662;SDS011;16578;53.266;7.920;2023-06-10T06:40:13;6.85;;;3.90;;
29662;SDS011;16578;53.266;7.920;2023-06-10T06:42:39;11.80;;;4.32;;
29662;SDS011;16578;53.266;7.920;2023-06-10T06:45:05;7.07;;;4.05;;
29662;SDS011;16578;53.266;7.920;2023-06-10T06:47:31;8.50;;;4.07;;
29662;SDS011;16578;53.266;7.920;2023-06-10T06:49:56;10.18;;;3.90;;
29662;SDS011;16578;53.266;7.920;2023-06-10T06:52:22;8.10;;;4.10;;
29662;SDS011;16578;53.266;7.920;2023-06-10T06:54:47;8.40;;;4.30;;
29662;SDS011;16578;53.266;7.920;2023-06-10T06:57:13;9.88;;;4.40;;
29662;SDS011;16578;53.266;7.920;2023-06-10T06:59:38;7.88;;;3.92;;
29662;SDS011;16578;53.266;7.920;2023-06-10T07:02:04;8.63;;;4.40;;
29662;SDS011;16578;53.266;7.920;2023-06-10T07:04:30;7.45;;;3.45;;
29662;SDS011;16578;53.266;7.920;2023-06-10T07:06:56;8.07;;;4.25;;
29662;SDS011;16578;53.266;7.920;2023-06-10T07:09:22;7.40;;;3.45;;
29662;SDS011;16578;53.266;7.920;2023-06-10T07:11:47;7.88;;;4.00;;
29662;SDS011;16578;53.266;7.920;2023-06-10T07:14:13;7.18;;;4.20;;
29662;SDS011;16578;53.266;7.920;2023-06-10T07:16:38;8.55;;;4.22;;
29662;SDS011;16578;53.266;7.920;2023-06-10T07:19:04;10.02;;;4.60;;
29662;SDS011;16578;53.266;7.920;2023-06-10T07:21:30;8.65;;;4.25;;
29662;SDS011;16578;53.266;7.920;2023-06-10T07:23:55;9.65;;;4.05;;
29662;SDS011;16578;53.266;7.920;2023-06-10T07:26:24;7.88;;;3.75;;
29662;SDS011;16578;53.266;7.920;2023-06-10T07:28:50;6.05;;;4.00;;
29662;SDS011;16578;53.266;7.920;2023-06-10T07:31:16;11.45;;;4.88;;
29662;SDS011;16578;53.266;7.920;2023-06-10T07:33:42;6.75;;;3.88;;
29662;SDS011;16578;53.266;7.920;2023-06-10T07:36:08;7.45;;;4.20;;
29662;SDS011;16578;53.266;7.920;2023-06-10T07:38:34;8.40;;;4.13;;
29662;SDS011;16578;53.266;7.920;2023-06-10T07:41:00;10.07;;;4.57;;
29662;SDS011;16578;53.266;7.920;2023-06-10T07:43:26;6.55;;;4.47;;
29662;SDS011;16578;53.266;7.920;2023-06-10T07:45:52;7.10;;;3.80;;
29662;SDS011;16578;53.266;7.920;2023-06-10T07:48:17;9.82;;;4.03;;
29662;SDS011;16578;53.266;7.920;2023-06-10T07:50:43;6.95;;;3.90;;
29662;SDS011;16578;53.266;7.920;2023-06-10T07:53:09;7.32;;;4.25;;
29662;SDS011;16578;53.266;7.920;2023-06-10T07:55:34;7.78;;;3.67;;
29662;SDS011;16578;53.266;7.920;2023-06-10T07:58:00;10.35;;;4.13;;
29662;SDS011;16578;53.266;7.920;2023-06-10T08:00:25;10.10;;;4.32;;
29662;SDS011;16578;53.266;7.920;2023-06-10T08:02:51;10.50;;;4.65;;
29662;SDS011;16578;53.266;7.920;2023-06-10T08:05:17;10.13;;;4.20;;
29662;SDS011;16578;53.266;7.920;2023-06-10T08:07:42;9.15;;;4.00;;
29662;SDS011;16578;53.266;7.920;2023-06-10T08:10:08;6.70;;;3.85;;
29662;SDS011;16578;53.266;7.920;2023-06-10T08:12:34;8.55;;;4.35;;
29662;SDS011;16578;53.266;7.920;2023-06-10T08:15:01;7.28;;;4.38;;
29662;SDS011;16578;53.266;7.920;2023-06-10T08:17:29;8.25;;;4.00;;
29662;SDS011;16578;53.266;7.920;2023-06-10T08:19:55;8.07;;;3.60;;
29662;SDS011;16578;53.266;7.920;2023-06-10T08:22:20;7.20;;;4.10;;
29662;SDS011;16578;53.266;7.920;2023-06-10T08:24:46;7.65;;;4.30;;
29662;SDS011;16578;53.266;7.920;2023-06-10T08:27:11;6.65;;;3.58;;
29662;SDS011;16578;53.266;7.920;2023-06-10T08:29:37;7.43;;;3.78;;
29662;SDS011;16578;53.266;7.920;2023-06-10T08:32:04;9.10;;;4.10;;
29662;SDS011;16578;53.266;7.920;2023-06-10T08:34:30;8.40;;;4.35;;
29662;SDS011;16578;53.266;7.920;2023-06-10T08:36:57;7.95;;;3.70;;
29662;SDS011;16578;53.266;7.920;2023-06-10T08:39:23;8.70;;;4.25;;
29662;SDS011;16578;53.266;7.920;2023-06-10T08:41:58;6.57;;;4.15;;
29662;SDS011;16578;53.266;7.920;2023-06-10T08:44:44;8.32;;;3.72;;
29662;SDS011;16578;53.266;7.920;2023-06-10T08:47:13;9.25;;;4.15;;
29662;SDS011;16578;53.266;7.920;2023-06-10T08:49:41;6.45;;;3.97;;
29662;SDS011;16578;53.266;7.920;2023-06-10T08:52:09;9.05;;;4.10;;
29662;SDS011;16578;53.266;7.920;2023-06-10T08:54:40;9.43;;;4.18;;
29662;SDS011;16578;53.266;7.920;2023-06-10T08:57:08;11.20;;;4.03;;
29662;SDS011;16578;53.266;7.920;2023-06-10T08:59:34;6.75;;;3.78;;
29662;SDS011;16578;53.266;7.920;2023-06-10T09:02:01;8.68;;;3.88;;
29662;SDS011;16578;53.266;7.920;2023-06-10T09:04:29;7.10;;;3.78;;
29662;SDS011;16578;53.266;7.920;2023-06-10T09:06:55;6.38;;;3.90;;
29662;SDS011;16578;53.266;7.920;2023-06-10T09:09:25;6.40;;;3.50;;
29662;SDS011;16578;53.266;7.920;2023-06-10T09:11:53;7.18;;;4.03;;
29662;SDS011;16578;53.266;7.920;2023-06-10T09:14:18;8.30;;;4.10;;
29662;SDS011;16578;53.266;7.920;2023-06-10T09:16:44;11.30;;;4.30;;
29662;SDS011;16578;53.266;7.920;2023-06-10T09:19:11;6.43;;;3.78;;
29662;SDS011;16578;53.266;7.920;2023-06-10T09:21:37;6.78;;;3.55;;
29662;SDS011;16578;53.266;7.920;2023-06-10T09:24:03;5.72;;;3.83;;
29662;SDS011;16578;53.266;7.920;2023-06-10T09:26:30;8.70;;;3.72;;
29662;SDS011;16578;53.266;7.920;2023-06-10T09:29:05;10.85;;;4.35;;
29662;SDS011;16578;53.266;7.920;2023-06-10T09:31:34;10.17;;;4.17;;
29662;SDS011;16578;53.266;7.920;2023-06-10T09:34:14;8.18;;;4.13;;
29662;SDS011;16578;53.266;7.920;2023-06-10T09:36:41;8.32;;;4.28;;
29662;SDS011;16578;53.266;7.920;2023-06-10T09:39:17;6.25;;;3.75;;
29662;SDS011;16578;53.266;7.920;2023-06-10T09:41:44;7.60;;;3.92;;
29662;SDS011;16578;53.266;7.920;2023-06-10T09:44:17;8.40;;;4.20;;
29662;SDS011;16578;53.266;7.920;2023-06-10T09:46:45;7.15;;;4.30;;
29662;SDS011;16578;53.266;7.920;2023-06-10T09:49:11;7.20;;;4.15;;
29662;SDS011;16578;53.266;7.920;2023-06-10T09:51:37;8.55;;;4.50;;
29662;SDS011;16578;53.266;7.920;2023-06-10T09:54:03;8.75;;;4.18;;
29662;SDS011;16578;53.266;7.920;2023-06-10T09:56:35;10.23;;;4.40;;
29662;SDS011;16578;53.266;7.920;2023-06-10T09:59:01;7.18;;;4.22;;
29662;SDS011;16578;53.266;7.920;2023-06-10T10:01:28;8.40;;;4.05;;
29662;SDS011;16578;53.266;7.920;2023-06-10T10:03:55;6.65;;;3.65;;
29662;SDS011;16578;53.266;7.920;2023-06-10T10:06:21;6.55;;;3.78;;
29662;SDS011;16578;53.266;7.920;2023-06-10T10:08:47;6.65;;;4.57;;
29662;SDS011;16578;53.266;7.920;2023-06-10T10:11:17;12.63;;;4.32;;
29662;SDS011;16578;53.266;7.920;2023-06-10T10:13:45;8.25;;;4.30;;
29662;SDS011;16578;53.266;7.920;2023-06-10T10:19:16;11.77;;;4.53;;
29662;SDS011;16578;53.266;7.920;2023-06-10T10:21:52;8.13;;;3.88;;
29662;SDS011;16578;53.266;7.920;2023-06-10T10:24:23;7.07;;;4.13;;
29662;SDS011;16578;53.266;7.920;2023-06-10T10:26:55;7.75;;;4.65;;
29662;SDS011;16578;53.266;7.920;2023-06-10T10:31:55;8.23;;;4.60;;
29662;SDS011;16578;53.266;7.920;2023-06-10T10:34:29;9.65;;;5.35;;
29662;SDS011;16578;53.266;7.920;2023-06-10T10:36:59;10.40;;;4.60;;
29662;SDS011;16578;53.266;7.920;2023-06-10T10:39:25;8.98;;;4.72;;
29662;SDS011;16578;53.266;7.920;2023-06-10T10:41:53;12.27;;;5.40;;
29662;SDS011;16578;53.266;7.920;2023-06-10T10:44:19;11.48;;;4.80;;
29662;SDS011;16578;53.266;7.920;2023-06-10T10:46:49;8.20;;;4.35;;
29662;SDS011;16578;53.266;7.920;2023-06-10T10:49:17;7.32;;;4.10;;
29662;SDS011;16578;53.266;7.920;2023-06-10T10:52:02;5.65;;;3.75;;
29662;SDS011;16578;53.266;7.920;2023-06-10T10:54:34;7.90;;;3.75;;
29662;SDS011;16578;53.266;7.920;2023-06-10T10:59:57;6.68;;;4.10;;
29662;SDS011;16578;53.266;7.920;2023-06-10T11:02:36;5.32;;;3.78;;
29662;SDS011;16578;53.266;7.920;2023-06-10T11:05:07;8.88;;;4.13;;
29662;SDS011;16578;53.266;7.920;2023-06-10T11:07:33;7.78;;;4.43;;
29662;SDS011;16578;53.266;7.920;2023-06-10T11:10:11;6.93;;;3.47;;
29662;SDS011;16578;53.266;7.920;2023-06-10T11:12:53;8.30;;;4.28;;
29662;SDS011;16578;53.266;7.920;2023-06-10T11:15:23;8.50;;;3.65;;
29662;SDS011;16578;53.266;7.920;2023-06-10T11:18:06;6.93;;;3.90;;
29662;SDS011;16578;53.266;7.920;2023-06-10T11:20:41;8.68;;;4.22;;
29662;SDS011;16578;53.266;7.920;2023-06-10T11:28:39;5.97;;;3.30;;
29662;SDS011;16578;53.266;7.920;2023-06-10T11:31:05;6.85;;;3.70;;
29662;SDS011;16578;53.266;7.920;2023-06-10T11:33:30;5.32;;;4.18;;
29662;SDS011;16578;53.266;7.920;2023-06-10T11:35:56;6.97;;;4.10;;
29662;SDS011;16578;53.266;7.920;2023-06-10T11:38:23;8.85;;;4.15;;
29662;SDS011;16578;53.266;7.920;2023-06-10T11:40:49;8.75;;;3.70;;
29662;SDS011;16578;53.266;7.920;2023-06-10T11:43:16;5.80;;;3.78;;
29662;SDS011;16578;53.266;7.920;2023-06-10T11:45:42;9.20;;;4.40;;
29662;SDS011;16578;53.266;7.920;2023-06-10T11:48:08;8.35;;;3.90;;
29662;SDS011;16578;53.266;7.920;2023-06-10T11:50:35;9.65;;;3.95;;
29662;SDS011;16578;53.266;7.920;2023-06-10T11:53:02;9.85;;;3.90;;
29662;SDS011;16578;53.266;7.920;2023-06-10T11:55:44;9.40;;;3.72;;
29662;SDS011;16578;53.266;7.920;2023-06-10T11:58:21;7.78;;;3.75;;
29662;SDS011;16578;53.266;7.920;2023-06-10T12:00:47;6.32;;;3.60;;
29662;SDS011;16578;53.266;7.920;2023-06-10T12:03:26;6.40;;;4.03;;
29662;SDS011;16578;53.266;7.920;2023-06-10T12:06:01;9.98;;;4.05;;
29662;SDS011;16578;53.266;7.920;2023-06-10T12:08:28;7.10;;;3.78;;
29662;SDS011;16578;53.266;7.920;2023-06-10T12:10:55;7.90;;;3.55;;
29662;SDS011;16578;53.266;7.920;2023-06-10T12:13:21;6.75;;;3.47;;
29662;SDS011;16578;53.266;7.920;2023-06-10T12:15:49;6.38;;;2.92;;
29662;SDS011;16578;53.266;7.920;2023-06-10T12:18:18;5.07;;;3.13;;
29662;SDS011;16578;53.266;7.920;2023-06-10T12:20:45;7.35;;;3.30;;
29662;SDS011;16578;53.266;7.920;2023-06-10T12:23:11;5.05;;;3.55;;
29662;SDS011;16578;53.266;7.920;2023-06-10T12:25:37;4.93;;;3.25;;
29662;SDS011;16578;53.266;7.920;2023-06-10T12:28:04;5.50;;;3.33;;
29662;SDS011;16578;53.266;7.920;2023-06-10T12:30:31;5.72;;;3.53;;
29662;SDS011;16578;53.266;7.920;2023-06-10T12:32:57;6.32;;;3.38;;
29662;SDS011;16578;53.266;7.920;2023-06-10T12:35:27;5.03;;;2.92;;
29662;SDS011;16578;53.266;7.920;2023-06-10T12:38:00;4.65;;;2.70;;
29662;SDS011;16578;53.266;7.920;2023-06-10T12:42:54;5.80;;;2.97;;
29662;SDS011;16578;53.266;7.920;2023-06-10T12:45:37;5.32;;;2.72;;
29662;SDS011;16578;53.266;7.920;2023-06-10T12:50:36;6.68;;;3.25;;
29662;SDS011;16578;53.266;7.920;2023-06-10T12:53:03;5.80;;;3.47;;
29662;SDS011;16578;53.266;7.920;2023-06-10T12:55:29;7.32;;;3.33;;
29662;SDS011;16578;53.266;7.920;2023-06-10T12:57:55;7.15;;;2.97;;
29662;SDS011;16578;53.266;7.920;2023-06-10T13:00:22;4.78;;;2.45;;
29662;SDS011;16578;53.266;7.920;2023-06-10T13:02:50;6.18;;;2.92;;
29662;SDS011;16578;53.266;7.920;2023-06-10T13:07:45;3.58;;;2.33;;
29662;SDS011;16578;53.266;7.920;2023-06-10T13:10:12;5.32;;;2.85;;
29662;SDS011;16578;53.266;7.920;2023-06-10T13:12:38;4.75;;;2.60;;
29662;SDS011;16578;53.266;7.920;2023-06-10T13:15:04;5.63;;;2.88;;
29662;SDS011;16578;53.266;7.920;2023-06-10T13:17:30;3.72;;;2.80;;
29662;SDS011;16578;53.266;7.920;2023-06-10T13:19:56;4.38;;;2.53;;
29662;SDS011;16578;53.266;7.920;2023-06-10T13:22:21;5.15;;;2.78;;
29662;SDS011;16578;53.266;7.920;2023-06-10T13:24:48;3.83;;;2.22;;
29662;SDS011;16578;53.266;7.920;2023-06-10T13:27:14;6.05;;;2.90;;
29662;SDS011;16578;53.266;7.920;2023-06-10T13:29:40;4.05;;;2.47;;
29662;SDS011;16578;53.266;7.920;2023-06-10T13:32:05;4.13;;;2.72;;
29662;SDS011;16578;53.266;7.920;2023-06-10T13:34:31;6.15;;;2.42;;
29662;SDS011;16578;53.266;7.920;2023-06-10T13:36:57;5.47;;;2.83;;
29662;SDS011;16578;53.266;7.920;2023-06-10T13:39:23;3.45;;;2.22;;
29662;SDS011;16578;53.266;7.920;2023-06-10T13:41:48;5.43;;;2.50;;
29662;SDS011;16578;53.266;7.920;2023-06-10T13:44:14;7.25;;;2.53;;
29662;SDS011;16578;53.266;7.920;2023-06-10T13:46:40;3.70;;;2.50;;
29662;SDS011;16578;53.266;7.920;2023-06-10T13:49:05;5.75;;;2.30;;
29662;SDS011;16578;53.266;7.920;2023-06-10T13:51:31;4.10;;;2.35;;
29662;SDS011;16578;53.266;7.920;2023-06-10T13:53:56;6.20;;;2.35;;
29662;SDS011;16578;53.266;7.920;2023-06-10T13:56:22;5.00;;;2.15;;
29662;SDS011;16578;53.266;7.920;2023-06-10T13:58:48;3.10;;;2.40;;
29662;SDS011;16578;53.266;7.920;2023-06-10T14:01:13;3.42;;;2.15;;
29662;SDS011;16578;53.266;7.920;2023-06-10T14:03:39;3.13;;;1.95;;
29662;SDS011;16578;53.266;7.920;2023-06-10T14:06:04;3.75;;;2.13;;
29662;SDS011;16578;53.266;7.920;2023-06-10T14:08:30;4.55;;;2.28;;
29662;SDS011;16578;53.266;7.920;2023-06-10T14:10:56;4.13;;;2.13;;
29662;SDS011;16578;53.266;7.920;2023-06-10T14:13:21;3.58;;;2.35;;
29662;SDS011;16578;53.266;7.920;2023-06-10T14:15:47;2.97;;;2.10;;
29662;SDS011;16578;53.266;7.920;2023-06-10T14:18:12;5.30;;;2.28;;
29662;SDS011;16578;53.266;7.920;2023-06-10T14:20:38;2.38;;;2.15;;
29662;SDS011;16578;53.266;7.920;2023-06-10T14:23:04;3.42;;;2.05;;
29662;SDS011;16578;53.266;7.920;2023-06-10T14:25:29;3.88;;;2.03;;
29662;SDS011;16578;53.266;7.920;2023-06-10T14:27:55;4.75;;;2.08;;
29662;SDS011;16578;53.266;7.920;2023-06-10T14:30:20;3.30;;;1.92;;
29662;SDS011;16578;53.266;7.920;2023-06-10T14:32:46;2.08;;;1.80;;
29662;SDS011;16578;53.266;7.920;2023-06-10T14:35:11;4.72;;;1.95;;
29662;SDS011;16578;53.266;7.920;2023-06-10T14:37:37;4.13;;;2.00;;
29662;SDS011;16578;53.266;7.920;2023-06-10T14:40:05;5.65;;;2.20;;
29662;SDS011;16578;53.266;7.920;2023-06-10T14:42:31;3.55;;;1.75;;
29662;SDS011;16578;53.266;7.920;2023-06-10T14:44:57;3.72;;;2.10;;
29662;SDS011;16578;53.266;7.920;2023-06-10T14:47:23;8.45;;;2.17;;
29662;SDS011;16578;53.266;7.920;2023-06-10T14:49:49;3.45;;;1.95;;
29662;SDS011;16578;53.266;7.920;2023-06-10T14:52:15;3.20;;;2.20;;
29662;SDS011;16578;53.266;7.920;2023-06-10T14:54:40;2.75;;;1.70;;
29662;SDS011;16578;53.266;7.920;2023-06-10T14:57:06;3.80;;;2.17;;
29662;SDS011;16578;53.266;7.920;2023-06-10T14:59:32;3.05;;;1.80;;
29662;SDS011;16578;53.266;7.920;2023-06-10T15:01:58;3.50;;;1.90;;
29662;SDS011;16578;53.266;7.920;2023-06-10T15:04:25;3.53;;;1.95;;
29662;SDS011;16578;53.266;7.920;2023-06-10T15:06:51;3.70;;;1.88;;
29662;SDS011;16578;53.266;7.920;2023-06-10T15:09:17;2.95;;;1.75;;
29662;SDS011;16578;53.266;7.920;2023-06-10T15:11:42;2.53;;;1.92;;